Time;durP1;ratioP1;P1;durP2;ratioP2;P2;SDS_P1;SDS_P2;PMS_P1;PMS_P2;Temp;Humidity;BMP_temperature;BMP_pressure;BME280_temperature;BME280_humidity;BME280_pressure;Samples;Min_cycle;Max_cycle;Signal;HPM_P1;HPM_P2
2022/05/03 00:00:03;;;;;;;5.97;5.38;;;;;;;;;;5014546;28;98797;-73
2022/05/03 00:02:40;;;;;;;6.90;4.90;;;;;;;;;;5012572;28;98441;-74
2022/05/03 00:05:11;;;;;;;5.78;5.38;;;;;;;;;;5017763;28;99882;-73
2022/05/03 00:07:46;;;;;;;7.72;5.45;;;;;;;;;;5014668;28;99277;-72
2022/05/03 00:10:14;;;;;;;5.35;4.82;;;;;;;;;;5015009;28;99920;-72
2022/05/03 00:12:56;;;;;;;5.50;5.00;;;;;;;;;;5013981;28;99414;-72
2022/05/03 00:15:24;;;;;;;5.10;4.63;;;;;;;;;;5014737;28;98519;-72
2022/05/03 00:17:51;;;;;;;5.63;5.13;;;;;;;;;;5014833;28;99421;-73
2022/05/03 00:20:20;;;;;;;4.70;4.30;;;;;;;;;;5014379;28;99718;-73
2022/05/03 00:22:47;;;;;;;5.40;4.93;;;;;;;;;;5014168;28;99006;-73
2022/05/03 00:25:14;;;;;;;5.97;5.38;;;;;;;;;;5015106;28;99427;-73
2022/05/03 00:27:40;;;;;;;5.53;5.03;;;;;;;;;;5017485;28;99438;-73
2022/05/03 00:30:08;;;;;;;6.18;5.68;;;;;;;;;;5013205;28;102468;-72
2022/05/03 00:32:35;;;;;;;7.10;5.07;;;;;;;;;;5010625;28;100481;-72
2022/05/03 00:35:02;;;;;;;6.05;5.35;;;;;;;;;;5014985;28;98325;-73
2022/05/03 00:37:28;;;;;;;6.53;5.30;;;;;;;;;;5014077;28;99414;-73
2022/05/03 00:39:54;;;;;;;7.68;5.28;;;;;;;;;;5014179;28;99658;-73
2022/05/03 00:42:35;;;;;;;5.97;5.57;;;;;;;;;;5014403;28;98405;-72
2022/05/03 00:45:04;;;;;;;7.07;6.05;;;;;;;;;;5014375;28;99384;-72
2022/05/03 00:47:50;;;;;;;6.75;6.13;;;;;;;;;;5013827;28;99637;-72
2022/05/03 00:50:19;;;;;;;6.90;6.00;;;;;;;;;;5017746;28;98905;-72
2022/05/03 00:52:58;;;;;;;6.80;6.15;;;;;;;;;;5013767;28;99461;-72
2022/05/03 00:55:43;;;;;;;8.43;6.15;;;;;;;;;;5013978;28;98492;-72
2022/05/03 00:58:28;;;;;;;6.55;5.95;;;;;;;;;;5013471;28;99536;-72
2022/05/03 01:01:08;;;;;;;10.88;5.35;;;;;;;;;;5013477;28;99891;-73
2022/05/03 01:03:53;;;;;;;6.05;5.60;;;;;;;;;;5013946;28;98429;-72
2022/05/03 01:06:35;;;;;;;6.07;5.60;;;;;;;;;;5013858;28;100585;-73
2022/05/03 01:09:05;;;;;;;6.32;5.82;;;;;;;;;;5013756;28;99564;-73
2022/05/03 01:11:52;;;;;;;6.05;5.43;;;;;;;;;;5013982;28;98371;-72
2022/05/03 01:14:28;;;;;;;6.47;5.82;;;;;;;;;;5016777;28;99268;-72
2022/05/03 01:16:58;;;;;;;6.13;5.68;;;;;;;;;;5014493;28;97629;-72
2022/05/03 01:19:33;;;;;;;6.40;5.80;;;;;;;;;;5012459;28;99943;-73
2022/05/03 01:22:08;;;;;;;5.80;5.40;;;;;;;;;;4988316;28;100807;-72
2022/05/03 01:24:48;;;;;;;6.00;5.40;;;;;;;;;;5013402;28;99202;-73
2022/05/03 01:27:18;;;;;;;6.57;5.90;;;;;;;;;;5013674;28;99695;-72
2022/05/03 01:29:45;;;;;;;5.93;5.43;;;;;;;;;;5012389;28;101315;-72
2022/05/03 01:32:16;;;;;;;6.50;5.95;;;;;;;;;;5013681;28;98506;-72
2022/05/03 01:34:45;;;;;;;6.05;5.45;;;;;;;;;;5013741;28;99710;-73
2022/05/03 01:37:17;;;;;;;6.28;5.72;;;;;;;;;;5016514;28;100121;-72
2022/05/03 01:40:03;;;;;;;8.52;6.15;;;;;;;;;;5014065;28;100147;-72
2022/05/03 01:42:48;;;;;;;6.82;5.65;;;;;;;;;;5014023;28;98391;-72
2022/05/03 01:45:19;;;;;;;7.00;6.30;;;;;;;;;;5013596;28;98264;-72
2022/05/03 01:48:07;;;;;;;8.15;6.45;;;;;;;;;;5013376;28;99001;-72
2022/05/03 01:50:53;;;;;;;7.40;6.68;;;;;;;;;;4994328;28;100496;-72
2022/05/03 01:53:25;;;;;;;6.70;6.07;;;;;;;;;;5013304;28;98227;-72
2022/05/03 01:56:04;;;;;;;6.97;6.25;;;;;;;;;;5013196;28;99400;-72
2022/05/03 01:58:33;;;;;;;8.80;6.13;;;;;;;;;;4995279;28;99926;-73
2022/05/03 02:01:04;;;;;;;6.30;5.72;;;;;;;;;;4998195;28;98481;-72
2022/05/03 02:03:41;;;;;;;6.30;5.72;;;;;;;;;;5012783;28;100598;-73
2022/05/03 02:06:12;;;;;;;6.55;5.90;;;;;;;;;;5013215;28;98456;-72
2022/05/03 02:08:51;;;;;;;6.03;5.63;;;;;;;;;;5013674;28;99252;-71
2022/05/03 02:11:32;;;;;;;6.45;5.85;;;;;;;;;;5012429;28;99824;-72
2022/05/03 02:16:55;;;;;;;7.03;6.30;;;;;;;;;;5012629;28;99696;-71
2022/05/03 02:19:48;;;;;;;6.70;6.10;;;;;;;;;;5012619;28;99900;-73
2022/05/03 02:22:17;;;;;;;7.15;6.30;;;;;;;;;;5000526;28;98432;-72
2022/05/03 02:24:44;;;;;;;6.32;5.70;;;;;;;;;;4960642;28;99735;-72
2022/05/03 02:27:11;;;;;;;6.75;6.15;;;;;;;;;;5012697;28;98371;-72
2022/05/03 02:29:43;;;;;;;5.90;5.40;;;;;;;;;;5012923;28;99110;-72
2022/05/03 02:32:10;;;;;;;8.77;5.80;;;;;;;;;;5010893;28;102208;-72
2022/05/03 02:34:47;;;;;;;7.43;6.22;;;;;;;;;;5013323;28;97709;-72
2022/05/03 02:37:16;;;;;;;7.05;6.38;;;;;;;;;;5012711;28;98992;-71
2022/05/03 02:40:02;;;;;;;7.30;5.93;;;;;;;;;;5011921;28;101272;-72
2022/05/03 02:42:28;;;;;;;6.78;6.20;;;;;;;;;;5012166;28;99075;-71
2022/05/03 02:44:55;;;;;;;7.97;6.80;;;;;;;;;;5015482;28;100126;-72
2022/05/03 02:47:31;;;;;;;7.45;6.75;;;;;;;;;;5012636;28;98380;-71
2022/05/03 02:50:05;;;;;;;7.15;6.45;;;;;;;;;;5012505;28;99561;-72
2022/05/03 02:52:50;;;;;;;7.95;6.97;;;;;;;;;;5012304;28;99434;-72
2022/05/03 02:55:30;;;;;;;8.35;7.30;;;;;;;;;;5012252;28;98420;-71
2022/05/03 02:58:03;;;;;;;8.57;7.32;;;;;;;;;;5012184;28;98963;-72
2022/05/03 03:03:31;;;;;;;7.78;6.97;;;;;;;;;;5012375;28;98459;-72
2022/05/03 03:06:01;;;;;;;7.78;6.95;;;;;;;;;;5011222;28;100454;-72
2022/05/03 03:08:32;;;;;;;8.05;7.25;;;;;;;;;;5014902;28;100691;-71
2022/05/03 03:11:03;;;;;;;7.97;7.15;;;;;;;;;;5012350;28;100050;-71
2022/05/03 03:13:30;;;;;;;9.10;7.18;;;;;;;;;;4994734;28;99610;-72
2022/05/03 03:15:56;;;;;;;7.47;6.68;;;;;;;;;;5012009;28;98812;-71
2022/05/03 03:18:23;;;;;;;7.13;6.53;;;;;;;;;;5012292;28;99558;-71
2022/05/03 03:20:56;;;;;;;8.02;7.22;;;;;;;;;;5011781;28;99702;-71
2022/05/03 03:23:28;;;;;;;7.05;6.45;;;;;;;;;;5012872;28;98631;-71
2022/05/03 03:25:54;;;;;;;7.35;6.65;;;;;;;;;;5015997;28;99492;-71
2022/05/03 03:28:22;;;;;;;7.78;7.03;;;;;;;;;;5015298;28;99674;-71
2022/05/03 03:30:49;;;;;;;7.32;6.50;;;;;;;;;;5018487;28;98436;-71
2022/05/03 03:33:17;;;;;;;8.52;7.05;;;;;;;;;;5014492;28;99140;-71
2022/05/03 03:35:44;;;;;;;9.35;7.20;;;;;;;;;;5015212;28;98304;-72
2022/05/03 03:38:12;;;;;;;7.38;6.80;;;;;;;;;;5015311;28;99305;-71
2022/05/03 03:40:39;;;;;;;7.38;6.80;;;;;;;;;;5015073;28;99536;-71
2022/05/03 03:43:06;;;;;;;8.02;7.18;;;;;;;;;;5015241;28;98537;-71
2022/05/03 03:45:32;;;;;;;7.95;7.15;;;;;;;;;;5015142;28;99905;-71
2022/05/03 03:48:00;;;;;;;7.90;6.93;;;;;;;;;;5014905;28;99354;-71
2022/05/03 03:50:26;;;;;;;6.90;6.30;;;;;;;;;;5015924;28;97602;-71
2022/05/03 03:52:53;;;;;;;8.32;7.60;;;;;;;;;;5017992;28;100358;-72
2022/05/03 03:55:20;;;;;;;7.75;7.03;;;;;;;;;;5015250;28;98383;-72
2022/05/03 03:57:46;;;;;;;7.13;6.50;;;;;;;;;;5013888;28;99115;-71
2022/05/03 04:00:13;;;;;;;9.02;6.70;;;;;;;;;;5014680;28;99517;-71
2022/05/03 04:02:41;;;;;;;7.32;6.60;;;;;;;;;;5014583;28;99364;-71
2022/05/03 04:05:13;;;;;;;8.18;7.25;;;;;;;;;;5014627;28;99110;-71
2022/05/03 04:07:40;;;;;;;7.85;7.05;;;;;;;;;;5014511;28;99901;-71
2022/05/03 04:10:06;;;;;;;8.20;7.32;;;;;;;;;;5011762;28;98552;-72
2022/05/03 04:12:33;;;;;;;7.97;7.28;;;;;;;;;;5013091;28;99269;-71
2022/05/03 04:14:59;;;;;;;8.55;7.20;;;;;;;;;;5018123;28;98821;-71
2022/05/03 04:17:26;;;;;;;9.15;8.23;;;;;;;;;;5014767;28;98375;-71
2022/05/03 04:19:52;;;;;;;9.57;7.80;;;;;;;;;;5014288;28;99644;-71
2022/05/03 04:22:22;;;;;;;8.63;7.90;;;;;;;;;;5013938;28;101206;-72
2022/05/03 04:24:49;;;;;;;8.82;7.93;;;;;;;;;;5014613;28;100479;-72
2022/05/03 04:27:15;;;;;;;9.20;8.27;;;;;;;;;;5014177;28;99860;-71
2022/05/03 04:29:42;;;;;;;9.45;8.55;;;;;;;;;;5014720;28;98462;-72
2022/05/03 04:32:08;;;;;;;19.08;8.90;;;;;;;;;;5014469;28;98931;-72
2022/05/03 04:34:34;;;;;;;9.77;8.82;;;;;;;;;;5017554;28;99619;-71
2022/05/03 04:37:01;;;;;;;12.43;9.25;;;;;;;;;;5013839;28;99382;-72
2022/05/03 04:39:27;;;;;;;10.98;8.73;;;;;;;;;;5014644;28;98468;-71
2022/05/03 04:41:53;;;;;;;9.63;8.63;;;;;;;;;;5014435;28;98441;-71
2022/05/03 04:44:20;;;;;;;10.10;8.18;;;;;;;;;;5014083;28;99446;-71
2022/05/03 04:46:46;;;;;;;11.65;8.38;;;;;;;;;;4996077;28;100354;-71
2022/05/03 04:49:13;;;;;;;11.18;8.80;;;;;;;;;;5014169;28;99152;-72
2022/05/03 04:51:39;;;;;;;13.50;8.48;;;;;;;;;;5013620;28;100213;-71
2022/05/03 04:54:06;;;;;;;10.20;9.00;;;;;;;;;;5013861;28;99736;-71
2022/05/03 04:56:32;;;;;;;11.02;8.73;;;;;;;;;;5017398;28;98436;-71
2022/05/03 04:59:01;;;;;;;10.75;9.23;;;;;;;;;;5013371;28;99594;-72
2022/05/03 05:01:28;;;;;;;10.98;8.93;;;;;;;;;;5013796;28;98392;-72
2022/05/03 05:03:55;;;;;;;10.32;8.50;;;;;;;;;;5014504;28;99467;-71
2022/05/03 05:06:21;;;;;;;15.50;9.30;;;;;;;;;;5012878;28;100527;-72
2022/05/03 05:08:48;;;;;;;12.05;9.30;;;;;;;;;;5014108;28;98711;-72
2022/05/03 05:11:14;;;;;;;9.27;8.27;;;;;;;;;;5013507;28;99429;-72
2022/05/03 05:13:41;;;;;;;10.88;8.73;;;;;;;;;;5012958;28;100578;-72
2022/05/03 05:16:07;;;;;;;11.18;8.20;;;;;;;;;;4996418;28;98629;-72
2022/05/03 05:18:34;;;;;;;9.93;7.88;;;;;;;;;;5016915;28;99632;-72
2022/05/03 05:21:00;;;;;;;9.75;8.35;;;;;;;;;;5012974;28;98375;-72
2022/05/03 05:23:27;;;;;;;8.43;7.63;;;;;;;;;;5013707;28;99684;-72
2022/05/03 05:25:54;;;;;;;14.05;7.80;;;;;;;;;;5013415;28;99908;-73
2022/05/03 05:28:21;;;;;;;64.45;10.75;;;;;;;;;;5014220;28;98365;-73
2022/05/03 05:30:54;;;;;;;49.15;10.20;;;;;;;;;;5012895;28;98740;-73
2022/05/03 05:33:22;;;;;;;69.47;10.82;;;;;;;;;;5012371;28;99107;-74
2022/05/03 05:35:49;;;;;;;34.95;9.50;;;;;;;;;;5012128;28;99169;-73
2022/05/03 05:38:17;;;;;;;31.85;9.70;;;;;;;;;;5013420;28;100178;-73
2022/05/03 05:40:43;;;;;;;51.50;9.52;;;;;;;;;;5016324;28;100070;-73
2022/05/03 05:43:10;;;;;;;40.30;9.65;;;;;;;;;;5013404;28;99354;-73
2022/05/03 05:45:37;;;;;;;23.10;9.50;;;;;;;;;;5013147;28;98986;-73
2022/05/03 05:48:04;;;;;;;33.50;9.40;;;;;;;;;;5011749;28;99437;-73
2022/05/03 05:50:31;;;;;;;29.63;10.73;;;;;;;;;;5013551;28;99324;-73
2022/05/03 05:55:45;;;;;;;23.30;8.75;;;;;;;;;;5013277;28;98440;-73
2022/05/03 05:58:11;;;;;;;25.33;8.95;;;;;;;;;;5012904;28;100540;-73
2022/05/03 06:00:38;;;;;;;16.88;8.32;;;;;;;;;;5012017;28;100381;-73
2022/05/03 06:03:05;;;;;;;18.83;8.63;;;;;;;;;;5016445;28;98477;-72
2022/05/03 06:05:32;;;;;;;24.08;8.20;;;;;;;;;;5012924;28;99571;-73
2022/05/03 06:07:58;;;;;;;30.83;8.85;;;;;;;;;;5013267;28;98356;-73
2022/05/03 06:10:25;;;;;;;17.05;8.50;;;;;;;;;;4995495;28;99381;-73
2022/05/03 06:12:51;;;;;;;18.08;7.75;;;;;;;;;;5012363;28;99695;-74
2022/05/03 06:15:20;;;;;;;9.27;7.38;;;;;;;;;;5012923;28;98395;-73
2022/05/03 06:17:46;;;;;;;7.53;6.82;;;;;;;;;;5010791;28;98575;-67
2022/05/03 06:20:13;;;;;;;8.05;7.20;;;;;;;;;;5012253;28;100162;-73
2022/05/03 06:22:39;;;;;;;9.18;7.32;;;;;;;;;;5012822;28;98352;-73
2022/05/03 06:25:09;;;;;;;14.43;7.57;;;;;;;;;;5015290;28;99464;-72
2022/05/03 06:27:36;;;;;;;8.45;7.70;;;;;;;;;;5012184;28;98403;-74
2022/05/03 06:30:03;;;;;;;8.38;7.03;;;;;;;;;;5012766;28;99893;-72
2022/05/03 06:32:29;;;;;;;8.38;7.68;;;;;;;;;;5012348;28;99540;-73
2022/05/03 06:34:56;;;;;;;9.27;8.32;;;;;;;;;;5012547;28;100507;-73
2022/05/03 06:37:22;;;;;;;13.32;9.13;;;;;;;;;;5012490;28;100319;-72
2022/05/03 06:39:48;;;;;;;10.55;9.20;;;;;;;;;;5012020;28;99748;-72
2022/05/03 06:42:18;;;;;;;10.50;9.45;;;;;;;;;;5012592;28;97572;-73
2022/05/03 06:44:46;;;;;;;17.42;10.50;;;;;;;;;;5015476;28;98846;-73
2022/05/03 06:47:12;;;;;;;18.80;12.80;;;;;;;;;;5011733;28;98417;-73
2022/05/03 06:49:38;;;;;;;29.30;13.50;;;;;;;;;;5011090;28;99411;-74
2022/05/03 06:52:05;;;;;;;18.77;12.70;;;;;;;;;;4993952;28;99654;-75
2022/05/03 06:54:31;;;;;;;14.05;12.70;;;;;;;;;;5011587;28;98319;-73
2022/05/03 06:56:57;;;;;;;21.98;14.40;;;;;;;;;;5011078;28;99382;-73
2022/05/03 06:59:24;;;;;;;29.98;15.55;;;;;;;;;;5013049;28;99747;-73
2022/05/03 07:01:50;;;;;;;20.30;13.88;;;;;;;;;;5014990;28;98454;-73
2022/05/03 07:04:16;;;;;;;25.42;15.32;;;;;;;;;;5013850;28;100431;-71
2022/05/03 07:06:43;;;;;;;26.02;15.63;;;;;;;;;;5018206;28;100193;-73
2022/05/03 07:09:09;;;;;;;21.17;15.90;;;;;;;;;;5015102;28;98781;-73
2022/05/03 07:11:35;;;;;;;43.60;16.45;;;;;;;;;;5014348;28;99232;-74
2022/05/03 07:14:02;;;;;;;24.27;16.15;;;;;;;;;;5014146;28;99114;-73
2022/05/03 07:16:28;;;;;;;21.35;16.60;;;;;;;;;;5014760;28;100040;-73
2022/05/03 07:24:25;;;;;;;23.45;18.27;;;;;;;;;;5014552;28;99481;-74
2022/05/03 07:26:56;;;;;;;;;;;;;;;;;;5014954;28;99794;-72
2022/05/03 07:29:23;;;;;;;25.20;19.27;;;;;;;;;;5017872;28;119473;-70
2022/05/03 07:31:51;;;;;;;26.17;19.13;;;;;;;;;;5014658;28;98957;-74
2022/05/03 07:34:17;;;;;;;21.42;18.83;;;;;;;;;;5014571;28;98399;-73
2022/05/03 07:36:43;;;;;;;26.23;19.67;;;;;;;;;;5014115;28;99639;-73
2022/05/03 07:39:10;;;;;;;23.85;20.00;;;;;;;;;;5013322;28;101262;-73
2022/05/03 07:41:37;;;;;;;28.25;21.13;;;;;;;;;;5014317;28;99163;-73
2022/05/03 07:44:03;;;;;;;26.95;22.40;;;;;;;;;;5011406;28;99137;-74
2022/05/03 07:46:29;;;;;;;27.08;20.80;;;;;;;;;;5014164;28;99156;-73
2022/05/03 07:48:56;;;;;;;25.33;21.35;;;;;;;;;;5014298;28;99096;-75
2022/05/03 07:51:22;;;;;;;30.02;21.10;;;;;;;;;;5016808;28;99376;-73
2022/05/03 07:53:49;;;;;;;33.08;20.80;;;;;;;;;;5014303;28;98226;-73
2022/05/03 07:56:15;;;;;;;31.27;21.35;;;;;;;;;;5014482;28;99141;-73
2022/05/03 07:58:41;;;;;;;28.70;20.27;;;;;;;;;;5013621;28;98998;-71
2022/05/03 08:01:07;;;;;;;25.20;19.92;;;;;;;;;;5014288;28;98760;-70
2022/05/03 08:03:34;;;;;;;45.80;21.38;;;;;;;;;;5013144;28;99477;-72
2022/05/03 08:06:02;;;;;;;25.70;20.15;;;;;;;;;;5013535;28;99180;-70
2022/05/03 08:08:29;;;;;;;28.48;20.60;;;;;;;;;;5014182;28;98426;-70
2022/05/03 08:10:56;;;;;;;23.50;19.95;;;;;;;;;;5013014;28;99353;-70
2022/05/03 08:13:22;;;;;;;30.10;20.75;;;;;;;;;;5016537;28;99475;-71
2022/05/03 08:15:48;;;;;;;28.08;21.27;;;;;;;;;;5013800;28;98844;-70
2022/05/03 08:18:15;;;;;;;30.15;20.38;;;;;;;;;;5013361;28;99984;-70
2022/05/03 08:20:41;;;;;;;46.95;20.33;;;;;;;;;;5014261;28;97666;-71
2022/05/03 08:23:08;;;;;;;62.75;19.50;;;;;;;;;;5013646;28;98681;-70
2022/05/03 08:25:36;;;;;;;21.92;17.73;;;;;;;;;;5013597;28;99859;-71
2022/05/03 08:28:03;;;;;;;26.60;19.58;;;;;;;;;;5013242;28;99101;-71
2022/05/03 08:30:30;;;;;;;21.52;18.33;;;;;;;;;;5013850;28;100189;-71
2022/05/03 08:32:56;;;;;;;23.33;19.98;;;;;;;;;;5012915;28;99345;-72
2022/05/03 08:35:24;;;;;;;130.40;115.40;;;;;;;;;;5016480;28;99128;-71
2022/05/03 08:43:21;;;;;;;32.80;20.80;;;;;;;;;;5012991;28;100385;-73
2022/05/03 08:45:49;;;;;;;22.50;20.15;;;;;;;;;;5013831;28;98888;-72
2022/05/03 08:48:16;;;;;;;26.92;19.73;;;;;;;;;;5013401;28;98373;-73
2022/05/03 08:50:42;;;;;;;24.88;20.02;;;;;;;;;;5013442;28;99423;-72
2022/05/03 08:53:10;;;;;;;28.45;19.90;;;;;;;;;;5012513;28;100317;-71
2022/05/03 08:55:39;;;;;;;22.52;19.90;;;;;;;;;;5016519;28;98369;-71
2022/05/03 08:58:05;;;;;;;23.60;20.23;;;;;;;;;;5012594;28;99877;-70
2022/05/03 09:00:33;;;;;;;35.05;18.17;;;;;;;;;;5013188;28;98379;-75
2022/05/03 09:02:59;;;;;;;25.85;18.08;;;;;;;;;;5013208;28;99427;-71
2022/05/03 09:05:26;;;;;;;21.27;18.75;;;;;;;;;;5012960;28;99659;-71
2022/05/03 09:07:57;;;;;;;29.38;19.45;;;;;;;;;;5013260;28;98450;-70
2022/05/03 09:10:28;;;;;;;20.83;18.05;;;;;;;;;;5012697;28;99505;-69
2022/05/03 09:12:55;;;;;;;20.67;18.67;;;;;;;;;;5012465;28;100734;-71
2022/05/03 09:15:32;;;;;;;24.90;19.70;;;;;;;;;;5013061;28;98325;-72
2022/05/03 09:17:58;;;;;;;67.80;22.27;;;;;;;;;;5015477;28;99536;-72
2022/05/03 09:26:08;;;;;;;24.50;20.55;;;;;;;;;;5012280;28;99855;-69
2022/05/03 09:28:42;;;;;;;23.58;20.92;;;;;;;;;;5012869;28;98326;-72
2022/05/03 09:31:08;;;;;;;31.20;21.65;;;;;;;;;;4994929;28;101198;-72
2022/05/03 09:33:37;;;;;;;26.23;21.80;;;;;;;;;;5012045;28;99655;-72
2022/05/03 09:36:07;;;;;;;27.23;21.63;;;;;;;;;;5013189;28;97775;-72
2022/05/03 09:38:42;;;;;;;29.15;23.00;;;;;;;;;;5012644;28;98624;-71
2022/05/03 09:41:10;;;;;;;31.67;23.33;;;;;;;;;;5015705;28;98990;-72
2022/05/03 09:43:38;;;;;;;25.33;22.55;;;;;;;;;;5012205;28;99594;-72
2022/05/03 09:46:05;;;;;;;27.52;22.60;;;;;;;;;;5012291;28;99798;-72
2022/05/03 09:48:52;;;;;;;32.00;22.52;;;;;;;;;;5012521;28;98378;-71
2022/05/03 09:51:18;;;;;;;22.52;20.20;;;;;;;;;;5012257;28;102647;-72
2022/05/03 09:53:55;;;;;;;25.92;22.25;;;;;;;;;;5012268;28;99892;-72
2022/05/03 09:56:24;;;;;;;25.70;22.50;;;;;;;;;;5011838;28;98579;-72
2022/05/03 09:58:51;;;;;;;25.00;21.20;;;;;;;;;;5011806;28;99713;-74
2022/05/03 10:01:17;;;;;;;24.42;21.13;;;;;;;;;;5012565;28;98537;-73
2022/05/03 10:03:45;;;;;;;29.40;21.20;;;;;;;;;;5015257;28;98427;-74
2022/05/03 10:06:11;;;;;;;24.67;22.00;;;;;;;;;;5012021;28;99892;-74
2022/05/03 10:08:38;;;;;;;28.48;21.92;;;;;;;;;;5011135;28;99155;-75
2022/05/03 10:11:05;;;;;;;23.95;21.38;;;;;;;;;;5011819;28;100414;-74
2022/05/03 10:13:31;;;;;;;23.05;20.70;;;;;;;;;;5011815;28;99575;-74
2022/05/03 10:21:35;;;;;;;20.98;17.45;;;;;;;;;;5011732;28;99630;-74
2022/05/03 10:24:02;;;;;;;19.35;15.82;;;;;;;;;;5012062;28;98234;-75
2022/05/03 10:26:48;;;;;;;19.95;15.68;;;;;;;;;;5015400;28;100475;-75
2022/05/03 10:29:14;;;;;;;21.63;17.27;;;;;;;;;;5012281;28;98356;-75
2022/05/03 10:32:02;;;;;;;21.90;18.05;;;;;;;;;;5011790;28;99698;-76
2022/05/03 10:34:49;;;;;;;19.73;16.33;;;;;;;;;;5000652;28;100268;-75
2022/05/03 10:37:17;;;;;;;20.00;16.90;;;;;;;;;;5014753;28;98506;-78
2022/05/03 10:39:44;;;;;;;25.35;17.50;;;;;;;;;;5015582;28;98850;-75
2022/05/03 10:42:12;;;;;;;20.75;17.83;;;;;;;;;;5014807;28;99581;-75
2022/05/03 10:44:39;;;;;;;18.10;16.30;;;;;;;;;;5015433;28;98342;-75
2022/05/03 10:47:08;;;;;;;21.65;17.60;;;;;;;;;;5018232;28;100207;-75
2022/05/03 10:49:49;;;;;;;21.67;17.98;;;;;;;;;;5015351;28;98441;-77
2022/05/03 10:52:16;;;;;;;20.23;17.65;;;;;;;;;;5015634;28;99376;-75
2022/05/03 10:55:01;;;;;;;18.10;16.10;;;;;;;;;;5014438;28;99885;-74
2022/05/03 10:57:27;;;;;;;19.55;16.92;;;;;;;;;;5015374;28;98395;-76
2022/05/03 10:59:53;;;;;;;19.35;17.25;;;;;;;;;;5014350;28;99389;-74
2022/05/03 11:02:22;;;;;;;22.42;16.70;;;;;;;;;;5014489;28;99998;-75
2022/05/03 11:05:07;;;;;;;19.10;15.50;;;;;;;;;;5015302;28;98385;-74
2022/05/03 11:07:35;;;;;;;18.65;15.57;;;;;;;;;;5015186;28;99376;-75
2022/05/03 11:10:20;;;;;;;16.77;14.35;;;;;;;;;;5018034;28;99892;-74
2022/05/03 11:12:50;;;;;;;16.23;14.63;;;;;;;;;;5014881;28;100045;-74
2022/05/03 11:15:17;;;;;;;15.25;13.77;;;;;;;;;;5014601;28;100334;-75
2022/05/03 11:17:44;;;;;;;20.92;14.25;;;;;;;;;;5014777;28;98788;-75
2022/05/03 11:20:10;;;;;;;24.92;12.73;;;;;;;;;;5014856;28;98488;-74
2022/05/03 11:22:36;;;;;;;15.43;13.70;;;;;;;;;;5014471;28;99066;-74
2022/05/03 11:25:04;;;;;;;15.38;13.80;;;;;;;;;;5014313;28;99168;-73
2022/05/03 11:27:31;;;;;;;23.40;12.98;;;;;;;;;;5014297;28;101629;-73
2022/05/03 11:29:58;;;;;;;20.88;12.05;;;;;;;;;;5014408;28;99564;-73
2022/05/03 11:32:28;;;;;;;20.02;12.35;;;;;;;;;;5018077;28;98425;-72
2022/05/03 11:35:07;;;;;;;22.52;12.68;;;;;;;;;;5012211;28;99935;-76
2022/05/03 11:37:34;;;;;;;36.45;15.40;;;;;;;;;;4992252;28;98488;-75
2022/05/03 11:40:05;;;;;;;16.77;15.05;;;;;;;;;;4994499;28;100023;-75
2022/05/03 11:42:36;;;;;;;21.53;16.77;;;;;;;;;;4991769;28;99489;-76
2022/05/03 11:45:04;;;;;;;35.58;17.80;;;;;;;;;;4993210;28;98499;-75
2022/05/03 11:47:33;;;;;;;27.10;21.20;;;;;;;;;;4994526;28;99383;-74
2022/05/03 11:49:59;;;;;;;47.72;24.42;;;;;;;;;;4993518;28;100339;-76
2022/05/03 11:55:58;;;;;;;67.72;25.33;;;;;;;;;;4996710;28;98920;-75
2022/05/03 11:58:00;;;;;;;53.72;23.58;;;;;;;;;;4993689;28;98418;-77
2022/05/03 12:00:28;;;;;;;38.92;23.38;;;;;;;;;;4994200;28;99817;-76
2022/05/03 12:02:58;;;;;;;57.28;25.17;;;;;;;;;;4993344;28;99762;-75
2022/05/03 12:05:24;;;;;;;39.83;24.92;;;;;;;;;;4994019;28;98392;-75
2022/05/03 12:07:57;;;;;;;34.75;25.33;;;;;;;;;;4994096;28;99535;-75
2022/05/03 12:10:30;;;;;;;41.55;24.95;;;;;;;;;;4993667;28;100111;-75
2022/05/03 12:13:12;;;;;;;68.35;27.02;;;;;;;;;;4994021;28;98433;-76
2022/05/03 12:15:57;;;;;;;39.97;24.88;;;;;;;;;;4993249;28;100984;-75
2022/05/03 12:18:30;;;;;;;56.08;24.80;;;;;;;;;;4996931;28;99599;-74
2022/05/03 12:20:58;;;;;;;61.47;23.67;;;;;;;;;;4994070;28;99494;-75
2022/05/03 12:23:31;;;;;;;47.95;23.48;;;;;;;;;;4993175;28;101210;-75
2022/05/03 12:25:57;;;;;;;39.33;22.67;;;;;;;;;;4993159;28;98441;-75
2022/05/03 12:28:37;;;;;;;29.77;21.48;;;;;;;;;;4993445;28;99586;-74
2022/05/03 12:31:04;;;;;;;43.53;21.45;;;;;;;;;;4993162;28;99523;-74
2022/05/03 12:33:30;;;;;;;59.78;23.42;;;;;;;;;;4994092;28;97907;-74
2022/05/03 12:35:57;;;;;;;35.83;21.23;;;;;;;;;;4992223;28;100038;-75
2022/05/03 12:38:24;;;;;;;32.97;21.50;;;;;;;;;;4995609;28;99509;-75
2022/05/03 12:40:52;;;;;;;32.78;20.67;;;;;;;;;;4979160;28;99135;-75
2022/05/03 12:43:21;;;;;;;36.50;20.60;;;;;;;;;;4992753;28;99794;-74
2022/05/03 12:45:57;;;;;;;30.65;19.23;;;;;;;;;;4993375;28;98331;-74
2022/05/03 12:48:28;;;;;;;34.70;18.73;;;;;;;;;;4993710;28;99643;-74
2022/05/03 12:50:56;;;;;;;47.97;18.60;;;;;;;;;;4992939;28;100358;-75
2022/05/03 12:53:26;;;;;;;33.88;18.30;;;;;;;;;;4993474;28;98327;-70
2022/05/03 12:55:53;;;;;;;37.80;17.67;;;;;;;;;;4992956;28;98503;-73
2022/05/03 12:58:22;;;;;;;28.13;17.77;;;;;;;;;;4992901;28;99409;-73
2022/05/03 13:00:49;;;;;;;48.22;18.23;;;;;;;;;;4996997;28;98383;-75
2022/05/03 13:03:16;;;;;;;26.75;17.02;;;;;;;;;;4992536;28;99963;-74
2022/05/03 13:05:42;;;;;;;34.47;16.45;;;;;;;;;;4992873;28;99240;-73
2022/05/03 13:08:09;;;;;;;22.77;16.13;;;;;;;;;;4992545;28;101851;-73
2022/05/03 13:10:37;;;;;;;26.20;15.73;;;;;;;;;;4992619;28;99009;-74
2022/05/03 13:13:03;;;;;;;21.45;15.50;;;;;;;;;;4993142;28;98399;-73
2022/05/03 13:15:30;;;;;;;24.10;15.80;;;;;;;;;;4993049;28;99108;-72
2022/05/03 13:17:57;;;;;;;24.25;14.88;;;;;;;;;;4992727;28;99821;-73
2022/05/03 13:20:24;;;;;;;26.83;15.77;;;;;;;;;;4992760;28;98411;-73
2022/05/03 13:22:51;;;;;;;20.38;14.40;;;;;;;;;;4995803;28;99008;-73
2022/05/03 13:25:17;;;;;;;25.75;15.38;;;;;;;;;;4992649;28;98432;-73
2022/05/03 13:27:44;;;;;;;21.35;15.30;;;;;;;;;;4974887;28;101857;-73
2022/05/03 13:30:10;;;;;;;26.77;13.75;;;;;;;;;;4992026;28;100391;-75
2022/05/03 13:32:37;;;;;;;18.63;13.43;;;;;;;;;;4992829;28;98430;-73
2022/05/03 13:35:03;;;;;;;38.28;14.25;;;;;;;;;;4992429;28;100494;-74
2022/05/03 13:40:29;;;;;;;22.23;12.88;;;;;;;;;;4992442;28;98371;-73
2022/05/03 13:43:01;;;;;;;22.45;13.57;;;;;;;;;;4992492;28;99694;-73
2022/05/03 13:45:28;;;;;;;27.17;12.70;;;;;;;;;;4995384;28;100147;-74
2022/05/03 13:48:15;;;;;;;30.17;13.57;;;;;;;;;;4992855;28;99409;-74
2022/05/03 13:50:42;;;;;;;24.85;13.25;;;;;;;;;;4992132;28;99645;-71
2022/05/03 13:53:11;;;;;;;25.77;13.63;;;;;;;;;;4992616;28;98296;-73
2022/05/03 13:55:38;;;;;;;21.98;13.13;;;;;;;;;;4992142;28;99651;-74
2022/05/03 13:58:07;;;;;;;25.25;13.05;;;;;;;;;;4991457;28;100508;-74
2022/05/03 14:00:34;;;;;;;22.73;13.38;;;;;;;;;;4974618;28;98371;-73
2022/05/03 14:03:01;;;;;;;28.55;14.00;;;;;;;;;;5001754;28;98947;-74
2022/05/03 14:05:28;;;;;;;26.55;12.80;;;;;;;;;;5000781;28;99220;-73
2022/05/03 14:07:55;;;;;;;30.58;13.73;;;;;;;;;;5002289;28;99305;-75
2022/05/03 14:10:22;;;;;;;28.38;12.73;;;;;;;;;;5000835;28;99486;-75
2022/05/03 14:12:49;;;;;;;33.25;13.10;;;;;;;;;;5002782;28;97793;-74
2022/05/03 14:15:15;;;;;;;31.83;13.38;;;;;;;;;;5000097;28;98979;-75
2022/05/03 14:17:42;;;;;;;25.73;12.68;;;;;;;;;;4998751;28;98994;-75
2022/05/03 14:20:09;;;;;;;27.15;12.38;;;;;;;;;;4985138;28;99253;-75
2022/05/03 14:22:39;;;;;;;26.33;12.52;;;;;;;;;;5000164;28;100469;-74
2022/05/03 14:25:09;;;;;;;28.88;12.60;;;;;;;;;;5002074;28;99466;-75
2022/05/03 14:27:36;;;;;;;29.73;12.60;;;;;;;;;;4998242;28;98414;-74
2022/05/03 14:30:05;;;;;;;23.83;11.98;;;;;;;;;;5003625;28;99357;-75
2022/05/03 14:32:31;;;;;;;28.88;12.10;;;;;;;;;;4984034;28;98374;-75
2022/05/03 14:34:58;;;;;;;29.08;12.77;;;;;;;;;;5001904;28;99767;-79
2022/05/03 14:37:25;;;;;;;24.50;12.55;;;;;;;;;;4979737;28;99010;-80
2022/05/03 14:39:52;;;;;;;19.35;12.02;;;;;;;;;;5002594;28;98897;-79
2022/05/03 14:42:19;;;;;;;19.85;12.07;;;;;;;;;;4998407;28;101466;-78
2022/05/03 14:44:45;;;;;;;21.25;12.75;;;;;;;;;;4988749;28;101343;-79
2022/05/03 14:47:12;;;;;;;20.17;11.25;;;;;;;;;;4983534;28;99229;-79
2022/05/03 14:49:41;;;;;;;20.00;11.80;;;;;;;;;;4987356;28;99874;-78
2022/05/03 14:52:15;;;;;;;21.90;12.20;;;;;;;;;;5006057;28;99089;-80
2022/05/03 14:54:42;;;;;;;24.05;12.85;;;;;;;;;;5001390;28;98987;-76
2022/05/03 15:02:56;;;;;;;17.55;11.48;;;;;;;;;;4995847;28;98773;-74
2022/05/03 15:05:23;;;;;;;19.52;11.23;;;;;;;;;;4975560;28;101394;-73
2022/05/03 15:07:50;;;;;;;20.20;11.55;;;;;;;;;;4995715;28;98476;-75
2022/05/03 15:10:27;;;;;;;17.83;11.75;;;;;;;;;;4992550;28;99684;-75
2022/05/03 15:12:53;;;;;;;34.10;13.98;;;;;;;;;;4996426;28;100084;-75
2022/05/03 15:15:22;;;;;;;18.17;10.80;;;;;;;;;;4994931;28;100891;-76
2022/05/03 15:17:49;;;;;;;20.75;10.65;;;;;;;;;;4997896;28;99573;-76
2022/05/03 15:20:18;;;;;;;20.90;11.50;;;;;;;;;;5001799;28;98406;-75